Share

Allerton, IA

10:52 PM CDT on April 23, 2014 (GMT -0500)
farm (KIACHARI2) Elev 971 ft | 40.93 °N, 93.24 °W | Change Station

Current weather conditions updated 7 seconds ago

Overcast
Overcast
53.7 °F
Feels Like 53.7 °F
N
8.2
Wind Variable Wind from East
Gusts 16.0 mph
Sunrise 6:23 AM
Sunset 8:01 PM
Moon Waning Crescent

Tomorrow is forecast to be Warmer than today. Rain.

Pressure 29.77 in
Visibility 10.0 miles
Clouds Scattered Clouds 12000 ft
Overcast 14000 ft
Dew Point 37 °F
Humidity 53%
Rainfall 0.02 in
Snow Depth Not available.
UV 0 out of 16
Pollen 11.00 out of 12
Air Quality Not available.
Flu Activity Sporadic
METAR KCNC 240335Z AUTO 14020G27KT 10SM SCT120 OVC140 12/03 A2977 RMK AO2

More Conditions Fewer Conditions

Pressure 29.77 in
Visibility 10.0 miles
Clouds Scattered Clouds 12000 ft
Overcast 14000 ft
Dew Point 37 °F
Humidity 53%
Rainfall 0.02 in
Snow Depth Not available.
UV 0 out of 16
Pollen 11.00 out of 12
Air Quality Not available.
Flu Activity Sporadic
METAR KCNC 240335Z AUTO 14020G27KT 10SM SCT120 OVC140 12/03 A2977 RMK AO2

More Conditions Fewer Conditions

10-Day Weather Forecast

Almanac

Astronomy

Apr. 23, 2014 Rise Set
Actual Time 6:23 AM CDT 8:01 PM CDT
Civil Twilight 5:54 AM CDT 8:30 PM CDT
Nautical Twilight 5:19 AM CDT 9:05 PM CDT
Astronomical Twilight 4:41 AM CDT 9:43 PM CDT
Moon 2:57 AM CDT (4/23) 2:08 PM CDT (4/23)
Length of Visible Light 14h 36m
Length of Day
13h 38m
Tomorrow will be 2m 28s longer.
Waning Crescent, 30% of the Moon is Illuminated
Today
Waning Crescent
Apr 29
New
May 6
First Quarter
May 14
Full
May 21
Last Quarter

Today's Extremes

State Highs State Lows

Community

  • Balance
    Balance
  • Nestled In
    Nestled In
  • Stunning Sunrise
    Stunning Sunrise
  • spring flowers
    spring flowers
  • Earth Day Spectrum Ove' Blue
    Earth Day Spectrum Ove' Blue

WunderPhotos

Upload Photos

1,704,542 photos uploaded!

Nearby

Snow Depth

Station Depth Elevation
No new snow has been reported.

Coastal Water Temperatures

Place Temperature
No Stations Reporting

Earthquake Activity

City Distance Mag. Time & Date
No recent earthquake activity has been reported nearby.
Minimum magnitude displayed is 2.5.

Nearby Weather Stations

Station Location Temp. Dew Point Humidity Wind Precip. Elev Updated Type
MesoWest CORYDN , Corydon, IA 53 °F - - North  at  - 0.00 in / hr 1087 ft 7:50 PM CDT MADIS
MesoWest LINEVL , Lineville, IA 53 °F - - North  at  - 0.00 in / hr 1098 ft 8:15 PM CDT MADIS
farm, Chariton, IA 53.7 °F 37 °F 53% East  at  8.2 mph 0.00 in / hr 971 ft 10:52 PM CDT Rapid Fire
RAWS STEPHENS STATE FOREST IA, Derby, IA 53 °F 38 °F 56% ESE  at  7 mph 0.00 in / hr 959 ft 10:07 PM CDT MADIS
MesoWest CHARIT , Chariton, IA 51 °F - - North  at  - 0.00 in / hr 1018 ft 7:10 PM CDT MADIS

Show More Stations Show Fewer Stations

What do you think?

We're not finished. Please let us know what you like, what you don't like, and what you are still missing.